createdAt,value
2022-12-31T00:01:25.213Z,10.76
2022-12-31T00:03:54.496Z,10.74
2022-12-31T00:06:25.344Z,10.77
2022-12-31T00:08:55.034Z,10.79
2022-12-31T00:11:25.273Z,10.84
2022-12-31T00:13:54.466Z,10.87
2022-12-31T00:16:26.700Z,10.91
2022-12-31T00:18:59.092Z,10.87
2022-12-31T00:21:28.708Z,10.90
2022-12-31T00:23:57.833Z,10.88
2022-12-31T00:26:28.540Z,10.97
2022-12-31T00:28:58.018Z,11.18
2022-12-31T00:31:31.122Z,11.14
2022-12-31T00:34:00.375Z,11.16
2022-12-31T00:36:30.647Z,11.16
2022-12-31T00:39:00.736Z,11.19
2022-12-31T00:41:30.177Z,11.20
2022-12-31T00:43:59.025Z,11.30
2022-12-31T00:46:29.254Z,11.38
2022-12-31T00:48:57.848Z,11.48
2022-12-31T00:51:27.550Z,11.47
2022-12-31T00:53:58.276Z,11.51
2022-12-31T00:56:28.891Z,11.58
2022-12-31T00:58:57.670Z,11.66
2022-12-31T01:01:30.028Z,11.66
2022-12-31T01:04:00.327Z,11.67
2022-12-31T01:06:29.064Z,11.67
2022-12-31T01:08:57.730Z,11.70
2022-12-31T01:11:29.304Z,11.71
2022-12-31T01:13:59.652Z,11.74
2022-12-31T01:16:32.436Z,11.73
2022-12-31T01:19:02.477Z,11.79
2022-12-31T01:21:31.667Z,11.80
2022-12-31T01:24:00.855Z,11.76
2022-12-31T01:26:29.736Z,11.74
2022-12-31T01:28:58.322Z,11.79
2022-12-31T01:31:26.991Z,11.83
2022-12-31T01:33:57.196Z,11.87
2022-12-31T01:36:27.309Z,11.87
2022-12-31T01:38:56.852Z,11.88
2022-12-31T01:41:27.230Z,11.84
2022-12-31T01:43:58.561Z,11.85
2022-12-31T01:46:30.785Z,11.88
2022-12-31T01:49:03.638Z,11.89
2022-12-31T01:51:34.331Z,11.87
2022-12-31T01:54:04.063Z,11.84
2022-12-31T01:56:32.789Z,11.98
2022-12-31T01:59:01.694Z,11.94
2022-12-31T02:01:32.406Z,11.91
2022-12-31T02:04:07.223Z,11.91
2022-12-31T02:06:39.206Z,11.92
2022-12-31T02:09:08.257Z,11.89
2022-12-31T02:11:37.993Z,11.86
2022-12-31T02:14:09.262Z,11.84
2022-12-31T02:16:45.346Z,11.81
2022-12-31T02:19:43.561Z,11.74
2022-12-31T02:22:22.698Z,11.78
2022-12-31T02:25:04.932Z,11.77
2022-12-31T02:27:46.338Z,11.76
2022-12-31T02:30:18.703Z,11.77
2022-12-31T02:33:10.384Z,11.75
2022-12-31T02:35:47.810Z,11.79
2022-12-31T02:38:19.552Z,11.82
2022-12-31T02:40:48.725Z,11.80
2022-12-31T02:43:17.361Z,11.81
2022-12-31T02:45:52.517Z,11.83
2022-12-31T02:48:30.571Z,11.82
2022-12-31T02:51:08.981Z,11.81
2022-12-31T02:54:02.765Z,11.78
2022-12-31T02:56:34.880Z,11.79
2022-12-31T02:59:24.265Z,11.82
2022-12-31T03:02:19.216Z,11.88
2022-12-31T03:04:51.025Z,11.89
2022-12-31T03:07:22.096Z,11.89
2022-12-31T03:09:51.031Z,11.89
2022-12-31T03:12:39.507Z,11.92
2022-12-31T03:15:19.774Z,11.96
2022-12-31T03:17:52.374Z,12.00
2022-12-31T03:20:40.487Z,12.00
2022-12-31T03:23:11.376Z,11.98
2022-12-31T03:25:39.033Z,11.98
2022-12-31T03:28:09.303Z,12.01
2022-12-31T03:30:39.151Z,12.00
2022-12-31T03:33:09.619Z,11.98
2022-12-31T03:35:39.148Z,11.98
2022-12-31T03:38:08.195Z,11.97
2022-12-31T03:40:39.336Z,11.98
2022-12-31T03:43:08.293Z,11.99
2022-12-31T03:45:37.432Z,12.01
2022-12-31T03:48:07.613Z,11.99
2022-12-31T03:50:37.590Z,11.93
2022-12-31T03:53:06.833Z,11.92
2022-12-31T03:55:35.467Z,11.85
2022-12-31T03:58:04.293Z,11.87
2022-12-31T04:00:33.025Z,11.89
2022-12-31T04:03:01.688Z,11.95
2022-12-31T04:05:30.346Z,11.96
2022-12-31T04:08:00.272Z,11.96
2022-12-31T04:10:28.893Z,11.92
2022-12-31T04:13:00.187Z,11.89
2022-12-31T04:15:28.735Z,11.87
2022-12-31T04:17:57.323Z,11.86
2022-12-31T04:20:25.935Z,11.81
2022-12-31T04:22:54.557Z,11.78
2022-12-31T04:25:24.549Z,11.77
2022-12-31T04:27:53.185Z,11.79
2022-12-31T04:30:21.798Z,11.82
2022-12-31T04:32:50.365Z,11.84
2022-12-31T04:35:19.084Z,11.88
2022-12-31T04:37:47.808Z,11.88
2022-12-31T04:40:16.489Z,11.89
2022-12-31T04:42:46.423Z,11.95
2022-12-31T04:45:15.077Z,11.97
2022-12-31T04:47:43.710Z,12.00
2022-12-31T04:50:12.320Z,12.01
2022-12-31T04:52:43.106Z,12.03
2022-12-31T04:55:12.205Z,12.03
2022-12-31T04:57:42.345Z,12.06
2022-12-31T05:00:13.672Z,12.09
2022-12-31T05:02:42.445Z,12.12
2022-12-31T05:05:11.239Z,12.12
2022-12-31T05:07:39.919Z,12.18
2022-12-31T05:10:09.199Z,12.21
2022-12-31T05:12:37.802Z,12.27
2022-12-31T05:15:07.911Z,12.36
2022-12-31T05:17:37.862Z,12.41
2022-12-31T05:20:08.003Z,12.46
2022-12-31T05:22:36.616Z,12.47
2022-12-31T05:25:06.116Z,12.47
2022-12-31T05:27:34.919Z,12.54
2022-12-31T05:30:03.494Z,12.54
2022-12-31T05:32:32.208Z,12.55
2022-12-31T05:35:02.207Z,12.54
2022-12-31T05:37:31.363Z,12.56
2022-12-31T05:40:00.117Z,12.55
2022-12-31T05:42:28.835Z,12.59
2022-12-31T05:44:57.427Z,12.65
2022-12-31T05:47:26.487Z,12.72
2022-12-31T05:49:55.285Z,12.77
2022-12-31T05:52:25.308Z,12.82
2022-12-31T05:54:54.458Z,12.87
2022-12-31T05:57:23.109Z,12.87
2022-12-31T05:59:53.456Z,12.94
2022-12-31T06:02:22.213Z,12.96
2022-12-31T06:04:50.798Z,13.03
2022-12-31T06:07:19.464Z,13.01
2022-12-31T06:09:49.443Z,12.97
2022-12-31T06:12:18.078Z,12.94
2022-12-31T06:14:46.684Z,12.91
2022-12-31T06:17:15.309Z,12.92
2022-12-31T06:19:44.112Z,12.88
2022-12-31T06:22:12.725Z,12.84
2022-12-31T06:24:42.222Z,12.81
2022-12-31T06:27:12.292Z,12.78
2022-12-31T06:29:40.925Z,12.77
2022-12-31T06:32:09.546Z,12.76
2022-12-31T06:34:38.114Z,12.73
2022-12-31T06:37:06.753Z,12.72
2022-12-31T06:39:35.350Z,12.74
2022-12-31T06:42:03.939Z,12.75
2022-12-31T06:44:34.008Z,12.75
2022-12-31T06:47:02.645Z,12.73
2022-12-31T06:49:31.273Z,12.70
2022-12-31T06:51:59.938Z,12.71
2022-12-31T06:54:28.559Z,12.70
2022-12-31T06:56:57.793Z,12.66
2022-12-31T06:59:29.262Z,12.59
2022-12-31T07:02:06.277Z,12.55
2022-12-31T07:05:06.429Z,12.55
2022-12-31T07:07:39.615Z,12.50
2022-12-31T07:10:15.882Z,12.46
2022-12-31T07:12:53.900Z,12.41
2022-12-31T07:15:38.252Z,12.39
2022-12-31T07:18:16.722Z,12.34
2022-12-31T07:20:46.010Z,12.33
2022-12-31T07:23:15.178Z,12.24
2022-12-31T07:25:48.858Z,12.22
2022-12-31T07:28:23.548Z,12.22
2022-12-31T07:31:01.291Z,12.19
2022-12-31T07:33:39.908Z,12.17
2022-12-31T07:36:15.426Z,12.18
2022-12-31T07:38:51.701Z,12.18
2022-12-31T07:41:26.218Z,12.22
2022-12-31T07:44:00.963Z,12.21
2022-12-31T07:46:34.860Z,12.17
2022-12-31T07:49:05.665Z,12.13
2022-12-31T07:51:34.959Z,12.19
2022-12-31T07:54:05.481Z,12.18
2022-12-31T07:56:37.513Z,12.17
2022-12-31T07:59:17.412Z,12.18
2022-12-31T08:01:51.894Z,12.19
2022-12-31T08:04:28.545Z,12.26
2022-12-31T08:07:04.351Z,12.24
2022-12-31T08:09:40.949Z,12.31
2022-12-31T08:12:10.146Z,12.32
2022-12-31T08:14:45.028Z,12.32
2022-12-31T08:17:16.119Z,12.34
2022-12-31T08:19:47.175Z,12.37
2022-12-31T08:22:25.177Z,12.42
2022-12-31T08:25:06.263Z,12.48
2022-12-31T08:27:38.518Z,12.50
2022-12-31T08:30:10.025Z,12.52
2022-12-31T08:32:44.252Z,12.51
2022-12-31T08:35:24.557Z,12.50
2022-12-31T08:38:00.604Z,12.50
2022-12-31T08:40:32.724Z,12.52
2022-12-31T08:43:13.422Z,12.53
2022-12-31T08:45:44.751Z,12.58
2022-12-31T08:48:21.307Z,12.57
2022-12-31T08:50:51.910Z,12.60
2022-12-31T08:53:21.088Z,12.67
2022-12-31T08:55:51.275Z,12.70
2022-12-31T08:58:29.056Z,12.75
2022-12-31T09:00:59.308Z,12.86
2022-12-31T09:03:36.432Z,12.93
2022-12-31T09:06:13.319Z,12.96
2022-12-31T09:08:47.678Z,13.01
2022-12-31T09:11:23.065Z,13.04
2022-12-31T09:14:06.439Z,13.10
2022-12-31T09:16:41.740Z,13.14
2022-12-31T09:19:11.460Z,13.21
2022-12-31T09:21:44.327Z,13.18
2022-12-31T09:24:14.211Z,13.26
2022-12-31T09:26:50.520Z,13.28
2022-12-31T09:29:29.868Z,13.28
2022-12-31T09:32:02.436Z,13.28
2022-12-31T09:34:37.385Z,13.32
2022-12-31T09:37:13.791Z,13.36
2022-12-31T09:39:43.626Z,13.36
2022-12-31T09:42:38.785Z,13.37
2022-12-31T09:45:29.802Z,13.41
2022-12-31T09:48:32.366Z,13.42
2022-12-31T09:51:10.415Z,13.53
2022-12-31T09:54:06.192Z,13.63
2022-12-31T09:56:37.645Z,13.67
2022-12-31T09:59:15.179Z,13.73
2022-12-31T10:01:49.716Z,13.89
2022-12-31T10:04:39.389Z,13.96
2022-12-31T10:07:22.500Z,14.05
2022-12-31T10:10:01.668Z,14.12
2022-12-31T10:12:58.204Z,14.19
2022-12-31T10:15:49.829Z,14.32
2022-12-31T10:18:29.942Z,14.38
2022-12-31T10:21:07.342Z,14.51
2022-12-31T10:23:52.307Z,14.56
2022-12-31T10:26:42.624Z,14.65
2022-12-31T10:29:26.277Z,14.76
2022-12-31T10:32:05.495Z,14.81
2022-12-31T10:34:41.790Z,14.92
2022-12-31T10:37:14.380Z,14.95
2022-12-31T10:39:51.342Z,15.05
2022-12-31T10:42:59.374Z,15.09
2022-12-31T10:46:02.717Z,15.18
2022-12-31T10:48:57.413Z,15.18
2022-12-31T10:52:02.506Z,15.32
2022-12-31T10:55:15.737Z,15.53
2022-12-31T10:58:16.936Z,15.58
2022-12-31T11:00:53.818Z,15.54
2022-12-31T11:03:40.243Z,15.52
2022-12-31T11:06:37.394Z,15.58
2022-12-31T11:09:40.919Z,15.57
2022-12-31T11:12:22.446Z,15.69
2022-12-31T11:15:08.896Z,15.78
2022-12-31T11:17:47.566Z,15.87
2022-12-31T11:20:39.110Z,15.95
2022-12-31T11:23:17.702Z,15.96
2022-12-31T11:25:56.310Z,16.05
2022-12-31T11:28:49.615Z,16.14
2022-12-31T11:31:32.630Z,16.18
2022-12-31T11:34:14.912Z,16.25
2022-12-31T11:36:52.395Z,16.29
2022-12-31T11:39:36.397Z,16.30
2022-12-31T11:42:16.265Z,16.31
2022-12-31T11:44:48.349Z,16.34
2022-12-31T11:48:27.976Z,16.36
2022-12-31T11:50:45.757Z,16.42
2022-12-31T11:53:26.219Z,16.49
2022-12-31T11:56:01.524Z,16.55
2022-12-31T11:58:30.306Z,16.57
2022-12-31T12:01:01.987Z,16.60
2022-12-31T12:03:30.701Z,16.64
2022-12-31T12:06:00.947Z,16.68
2022-12-31T12:08:31.656Z,16.69
2022-12-31T12:11:05.226Z,16.72
2022-12-31T12:13:34.068Z,16.71
2022-12-31T12:16:04.515Z,16.67
2022-12-31T12:18:37.968Z,16.69
2022-12-31T12:21:13.851Z,16.67
2022-12-31T12:23:43.594Z,16.68
2022-12-31T12:26:29.198Z,16.66
2022-12-31T12:29:01.586Z,16.70
2022-12-31T12:31:30.572Z,16.75
2022-12-31T12:33:59.194Z,16.77
2022-12-31T12:36:29.201Z,16.79
2022-12-31T12:39:07.510Z,16.77
2022-12-31T12:41:36.130Z,16.78
2022-12-31T12:44:06.438Z,16.80
2022-12-31T12:46:37.088Z,16.78
2022-12-31T12:49:06.035Z,16.76
2022-12-31T12:51:45.539Z,16.75
2022-12-31T12:54:26.533Z,16.77
2022-12-31T12:57:00.612Z,16.78
2022-12-31T12:59:49.423Z,16.87
2022-12-31T13:02:33.069Z,16.88
2022-12-31T13:05:13.085Z,16.86
2022-12-31T13:07:52.082Z,16.82
2022-12-31T13:10:30.785Z,16.78
2022-12-31T13:13:23.450Z,16.78
2022-12-31T13:15:59.231Z,16.74
2022-12-31T13:18:37.332Z,16.70
2022-12-31T13:21:21.168Z,16.68
2022-12-31T13:23:54.132Z,16.61
2022-12-31T13:26:27.369Z,16.54
2022-12-31T13:28:57.111Z,16.50
2022-12-31T13:31:31.358Z,16.44
2022-12-31T13:34:02.483Z,16.41
2022-12-31T13:36:32.721Z,16.37
2022-12-31T13:39:04.133Z,16.33
2022-12-31T13:41:37.829Z,16.28
2022-12-31T13:44:13.228Z,16.21
2022-12-31T13:46:45.981Z,16.09
2022-12-31T13:49:18.053Z,16.03
2022-12-31T13:51:49.284Z,15.96
2022-12-31T13:54:27.875Z,15.91
2022-12-31T13:57:01.712Z,15.81
2022-12-31T13:59:33.963Z,15.78
2022-12-31T14:02:07.788Z,15.73
2022-12-31T14:04:40.342Z,15.62
2022-12-31T14:07:14.856Z,15.60
2022-12-31T14:09:46.477Z,15.56
2022-12-31T14:12:29.072Z,15.44
2022-12-31T14:15:04.636Z,15.36
2022-12-31T14:17:39.058Z,15.26
2022-12-31T14:20:15.958Z,15.10
2022-12-31T14:22:49.924Z,15.07
2022-12-31T14:25:23.260Z,15.00
2022-12-31T14:27:53.952Z,14.94
2022-12-31T14:30:23.939Z,14.87
2022-12-31T14:33:01.893Z,14.85
2022-12-31T14:35:41.625Z,14.75
2022-12-31T14:38:19.983Z,14.72
2022-12-31T14:41:01.861Z,14.67
2022-12-31T14:43:39.119Z,14.64
2022-12-31T14:46:14.297Z,14.63
2022-12-31T14:48:50.432Z,14.63
2022-12-31T14:51:19.142Z,14.57
2022-12-31T14:53:53.451Z,14.52
2022-12-31T14:56:39.092Z,14.44
2022-12-31T14:59:24.725Z,14.39
2022-12-31T15:01:53.867Z,14.32
2022-12-31T15:04:32.843Z,14.28
2022-12-31T15:07:08.146Z,14.18
2022-12-31T15:09:52.266Z,14.09
2022-12-31T15:12:48.549Z,14.05
2022-12-31T15:15:25.980Z,14.01
2022-12-31T15:18:02.691Z,13.91
2022-12-31T15:20:50.754Z,13.74
2022-12-31T15:23:22.413Z,13.65
2022-12-31T15:25:55.194Z,13.62
2022-12-31T15:28:31.745Z,13.59
2022-12-31T15:31:04.618Z,13.55
2022-12-31T15:33:35.698Z,13.53
2022-12-31T15:36:17.021Z,13.42
2022-12-31T15:38:50.491Z,13.34
2022-12-31T15:41:28.803Z,13.33
2022-12-31T15:44:02.027Z,13.32
2022-12-31T15:46:33.275Z,13.30
2022-12-31T15:49:06.780Z,13.24
2022-12-31T15:51:44.600Z,13.19
2022-12-31T15:54:22.706Z,13.09
2022-12-31T15:56:52.559Z,13.04
2022-12-31T15:59:24.516Z,13.02
2022-12-31T16:01:55.968Z,13.03
2022-12-31T16:04:27.082Z,12.99
2022-12-31T16:06:59.742Z,12.92
2022-12-31T16:09:30.551Z,12.88
2022-12-31T16:12:00.704Z,12.86
2022-12-31T16:14:35.899Z,12.79
2022-12-31T16:17:05.320Z,12.78
2022-12-31T16:19:36.081Z,12.72
2022-12-31T16:22:10.024Z,12.70
2022-12-31T16:25:02.839Z,12.69
2022-12-31T16:27:28.648Z,12.63
2022-12-31T16:30:01.982Z,12.62
2022-12-31T16:32:35.949Z,12.56
2022-12-31T16:35:10.730Z,12.50
2022-12-31T16:37:46.243Z,12.45
2022-12-31T16:40:20.153Z,12.40
2022-12-31T16:42:49.132Z,12.30
2022-12-31T16:45:25.756Z,12.27
2022-12-31T16:47:54.505Z,12.13
2022-12-31T16:50:24.660Z,12.09
2022-12-31T16:52:58.977Z,12.04
2022-12-31T16:55:30.108Z,11.97
2022-12-31T16:58:00.748Z,12.01
2022-12-31T17:00:30.765Z,11.97
2022-12-31T17:03:07.273Z,11.92
2022-12-31T17:05:55.099Z,11.84
2022-12-31T17:08:26.012Z,11.79
2022-12-31T17:10:56.450Z,11.73
2022-12-31T17:13:30.354Z,11.74
2022-12-31T17:16:01.948Z,11.73
2022-12-31T17:18:36.145Z,11.69
2022-12-31T17:21:09.302Z,11.67
2022-12-31T17:23:39.772Z,11.64
2022-12-31T17:26:11.344Z,11.56
2022-12-31T17:28:43.425Z,11.60
2022-12-31T17:31:35.272Z,11.56
2022-12-31T17:34:22.519Z,11.51
2022-12-31T17:37:02.600Z,11.45
2022-12-31T17:39:47.449Z,11.44
2022-12-31T17:42:24.727Z,11.44
2022-12-31T17:44:56.004Z,11.43
2022-12-31T17:47:33.980Z,11.37
2022-12-31T17:50:07.473Z,11.31
2022-12-31T17:52:36.055Z,11.23
2022-12-31T17:55:05.093Z,11.19
2022-12-31T17:57:33.741Z,11.22
2022-12-31T18:00:05.663Z,11.25
2022-12-31T18:02:35.705Z,11.29
2022-12-31T18:05:11.220Z,11.26
2022-12-31T18:07:39.899Z,11.27
2022-12-31T18:10:09.085Z,11.26
2022-12-31T18:12:37.980Z,11.21
2022-12-31T18:15:08.165Z,11.25
2022-12-31T18:17:38.138Z,11.22
2022-12-31T18:20:07.647Z,11.17
2022-12-31T18:22:36.459Z,11.16
2022-12-31T18:25:07.267Z,11.17
2022-12-31T18:27:35.851Z,11.15
2022-12-31T18:30:06.065Z,11.17
2022-12-31T18:32:38.650Z,11.18
2022-12-31T18:35:32.926Z,11.13
2022-12-31T18:38:01.752Z,11.08
2022-12-31T18:40:30.384Z,11.13
2022-12-31T18:43:04.648Z,11.26
2022-12-31T18:45:33.845Z,11.23
2022-12-31T18:48:03.831Z,11.17
2022-12-31T18:50:32.421Z,11.09
2022-12-31T18:53:01.065Z,11.10
2022-12-31T18:55:35.119Z,11.03
2022-12-31T18:58:03.865Z,11.01
2022-12-31T19:00:32.509Z,10.96
2022-12-31T19:03:01.174Z,10.88
2022-12-31T19:05:33.457Z,10.83
2022-12-31T19:08:02.061Z,10.81
2022-12-31T19:10:30.738Z,10.86
2022-12-31T19:12:59.400Z,10.84
2022-12-31T19:15:30.497Z,10.85
2022-12-31T19:17:59.247Z,10.83
2022-12-31T19:20:28.189Z,10.74
2022-12-31T19:22:58.688Z,10.62
2022-12-31T19:25:29.008Z,10.56
2022-12-31T19:27:57.802Z,10.55
2022-12-31T19:30:28.676Z,10.45
2022-12-31T19:32:57.362Z,10.42
2022-12-31T19:35:26.480Z,10.44
2022-12-31T19:37:56.089Z,10.51
2022-12-31T19:40:28.923Z,10.48
2022-12-31T19:42:58.303Z,10.56
2022-12-31T19:45:28.274Z,10.59
2022-12-31T19:47:57.811Z,10.60
2022-12-31T19:50:28.070Z,10.62
2022-12-31T19:52:58.821Z,10.55
2022-12-31T19:55:28.814Z,10.61
2022-12-31T19:57:57.411Z,10.67
2022-12-31T20:00:25.973Z,10.56
2022-12-31T20:02:54.700Z,10.43
2022-12-31T20:05:23.466Z,10.41
2022-12-31T20:07:52.104Z,10.40
2022-12-31T20:10:20.819Z,10.39
2022-12-31T20:12:50.729Z,10.48
2022-12-31T20:15:19.471Z,10.41
2022-12-31T20:17:48.115Z,10.40
2022-12-31T20:20:16.957Z,10.48
2022-12-31T20:22:45.578Z,10.52
2022-12-31T20:25:14.173Z,10.51
2022-12-31T20:27:42.804Z,10.37
2022-12-31T20:30:13.046Z,10.41
2022-12-31T20:32:41.688Z,10.40
2022-12-31T20:35:10.282Z,10.40
2022-12-31T20:37:38.884Z,10.38
2022-12-31T20:40:08.711Z,10.41
2022-12-31T20:42:39.874Z,10.39
2022-12-31T20:45:09.609Z,10.36
2022-12-31T20:47:39.571Z,10.42
2022-12-31T20:50:11.928Z,10.34
2022-12-31T20:52:40.777Z,10.28
2022-12-31T20:55:10.593Z,10.24
2022-12-31T20:57:39.208Z,10.22
2022-12-31T21:00:08.861Z,10.23
2022-12-31T21:02:42.755Z,10.22
2022-12-31T21:05:12.300Z,10.15
2022-12-31T21:07:41.041Z,10.17
2022-12-31T21:10:10.205Z,10.24
2022-12-31T21:12:44.046Z,10.19
2022-12-31T21:15:13.177Z,10.19
2022-12-31T21:17:43.580Z,10.16
2022-12-31T21:20:12.956Z,10.21
2022-12-31T21:22:41.631Z,10.23
2022-12-31T21:25:11.338Z,10.19
2022-12-31T21:27:39.978Z,10.08
2022-12-31T21:30:19.498Z,10.08
2022-12-31T21:32:50.087Z,10.03
2022-12-31T21:38:08.371Z,9.98
2022-12-31T21:40:37.031Z,10.01
2022-12-31T21:43:05.676Z,9.96
2022-12-31T21:45:35.187Z,9.89
2022-12-31T21:48:21.724Z,9.84
2022-12-31T21:50:52.418Z,9.93
2022-12-31T21:53:26.303Z,9.87
2022-12-31T21:56:08.894Z,9.85
2022-12-31T21:58:38.162Z,9.77
2022-12-31T22:01:24.985Z,9.78
2022-12-31T22:03:55.047Z,9.69
2022-12-31T22:06:24.574Z,9.74
2022-12-31T22:08:54.785Z,9.65
2022-12-31T22:11:25.114Z,9.59
2022-12-31T22:13:54.468Z,9.72
2022-12-31T22:16:23.731Z,9.71
2022-12-31T22:18:52.405Z,9.65
2022-12-31T22:21:23.975Z,9.60
2022-12-31T22:23:54.435Z,9.56
2022-12-31T22:26:24.534Z,9.57
2022-12-31T22:28:58.805Z,9.57
2022-12-31T22:31:29.887Z,9.49
2022-12-31T22:33:59.139Z,9.40
2022-12-31T22:36:29.097Z,9.48
2022-12-31T22:38:58.827Z,9.56
2022-12-31T22:41:28.375Z,9.56
2022-12-31T22:44:03.536Z,9.44
2022-12-31T22:46:33.784Z,9.42
2022-12-31T22:49:03.870Z,9.32
2022-12-31T22:51:58.739Z,9.28
2022-12-31T22:54:22.624Z,9.23
2022-12-31T22:56:51.189Z,9.21
2022-12-31T22:59:19.853Z,9.23
2022-12-31T23:01:48.522Z,9.17
2022-12-31T23:04:17.465Z,9.05
2022-12-31T23:06:47.477Z,9.06
2022-12-31T23:09:35.092Z,9.14
2022-12-31T23:12:04.380Z,9.05
2022-12-31T23:14:50.709Z,9.11
2022-12-31T23:17:42.497Z,9.08
2022-12-31T23:20:31.446Z,9.00
2022-12-31T23:23:10.632Z,8.97
2022-12-31T23:25:41.117Z,9.05
2022-12-31T23:28:12.052Z,9.01
2022-12-31T23:30:41.232Z,9.00
2022-12-31T23:33:14.868Z,8.98
2022-12-31T23:35:43.916Z,8.93
2022-12-31T23:38:16.569Z,8.89
2022-12-31T23:40:45.414Z,8.85
2022-12-31T23:43:20.098Z,8.85
2022-12-31T23:45:49.385Z,8.88
2022-12-31T23:48:17.981Z,8.90
2022-12-31T23:50:52.937Z,8.79
2022-12-31T23:53:24.365Z,8.78
2022-12-31T23:55:53.654Z,8.75
2022-12-31T23:58:23.168Z,8.82
